createdAt,value
2023-01-25T00:01:05.260Z,60.77
2023-01-25T00:02:36.857Z,60.71
2023-01-25T00:04:08.529Z,60.94
2023-01-25T00:05:40.049Z,60.85
2023-01-25T00:07:11.718Z,60.77
2023-01-25T00:08:43.283Z,61.23
2023-01-25T00:10:15.128Z,61.21
2023-01-25T00:11:46.903Z,61.08
2023-01-25T00:13:18.510Z,61.29
2023-01-25T00:14:50.038Z,61.13
2023-01-25T00:16:21.772Z,61.05
2023-01-25T00:17:53.411Z,61.29
2023-01-25T00:19:24.873Z,61.24
2023-01-25T00:20:56.420Z,61.24
2023-01-25T00:22:27.963Z,60.86
2023-01-25T00:23:59.694Z,60.74
2023-01-25T00:25:31.167Z,60.96
2023-01-25T00:27:02.953Z,60.83
2023-01-25T00:28:34.599Z,60.84
2023-01-25T00:30:06.499Z,60.83
2023-01-25T00:31:41.432Z,60.76
2023-01-25T00:33:16.103Z,61.00
2023-01-25T00:34:48.227Z,60.88
2023-01-25T00:36:38.256Z,60.90
2023-01-25T00:38:17.057Z,60.84
2023-01-25T00:39:48.714Z,60.93
2023-01-25T00:41:20.487Z,60.78
2023-01-25T00:42:52.010Z,60.48
2023-01-25T00:44:23.502Z,60.51
2023-01-25T00:46:00.603Z,60.35
2023-01-25T00:47:32.233Z,60.39
2023-01-25T00:49:03.833Z,60.05
2023-01-25T00:50:36.991Z,60.42
2023-01-25T00:52:08.641Z,60.28
2023-01-25T00:53:40.184Z,60.58
2023-01-25T00:55:12.320Z,60.14
2023-01-25T00:56:43.985Z,60.08
2023-01-25T00:58:15.578Z,60.05
2023-01-25T00:59:47.864Z,60.19
2023-01-25T01:01:19.472Z,60.37
2023-01-25T01:02:51.096Z,60.77
2023-01-25T01:04:25.645Z,60.72
2023-01-25T01:06:01.576Z,60.93
2023-01-25T01:07:33.035Z,60.87
2023-01-25T01:09:05.271Z,60.91
2023-01-25T01:10:36.860Z,60.92
2023-01-25T01:12:09.055Z,60.57
2023-01-25T01:13:40.827Z,60.48
2023-01-25T01:15:12.444Z,60.45
2023-01-25T01:16:44.197Z,60.55
2023-01-25T01:18:15.757Z,60.50
2023-01-25T01:19:47.370Z,60.38
2023-01-25T01:21:18.909Z,60.54
2023-01-25T01:22:52.057Z,60.82
2023-01-25T01:24:23.732Z,60.85
2023-01-25T01:25:55.268Z,60.91
2023-01-25T01:27:26.743Z,60.88
2023-01-25T01:28:58.800Z,61.12
2023-01-25T01:30:30.294Z,61.07
2023-01-25T01:32:02.095Z,61.25
2023-01-25T01:33:35.331Z,61.15
2023-01-25T01:35:08.136Z,61.06
2023-01-25T01:36:39.986Z,61.33
2023-01-25T01:38:11.480Z,61.19
2023-01-25T01:39:43.033Z,61.26
2023-01-25T01:41:15.116Z,61.21
2023-01-25T01:42:56.703Z,60.92
2023-01-25T01:44:44.672Z,61.10
2023-01-25T01:46:16.384Z,60.76
2023-01-25T01:47:48.896Z,60.73
2023-01-25T01:49:22.315Z,60.70
2023-01-25T01:50:54.154Z,60.83
2023-01-25T01:52:28.264Z,61.12
2023-01-25T01:54:05.603Z,60.82
2023-01-25T01:55:37.721Z,60.62
2023-01-25T01:57:14.505Z,60.47
2023-01-25T01:58:46.102Z,60.37
2023-01-25T02:00:18.615Z,60.46
2023-01-25T02:01:50.236Z,60.71
2023-01-25T02:03:21.908Z,60.78
2023-01-25T02:04:54.044Z,61.16
2023-01-25T02:06:27.551Z,61.08
2023-01-25T02:07:59.211Z,61.08
2023-01-25T02:09:30.818Z,60.89
2023-01-25T02:11:02.602Z,60.82
2023-01-25T02:12:34.215Z,60.58
2023-01-25T02:14:05.903Z,60.43
2023-01-25T02:15:38.773Z,60.27
2023-01-25T02:17:10.524Z,60.42
2023-01-25T02:18:42.032Z,60.03
2023-01-25T02:20:16.661Z,60.11
2023-01-25T02:21:48.110Z,60.15
2023-01-25T02:23:31.490Z,60.32
2023-01-25T02:25:08.059Z,60.50
2023-01-25T02:26:39.948Z,60.42
2023-01-25T02:28:26.167Z,60.57
2023-01-25T02:29:57.879Z,60.32
2023-01-25T02:31:29.503Z,60.38
2023-01-25T02:33:01.113Z,60.39
2023-01-25T02:34:32.915Z,60.64
2023-01-25T02:36:07.484Z,60.94
2023-01-25T02:37:39.188Z,60.86
2023-01-25T02:39:13.504Z,61.08
2023-01-25T02:40:46.437Z,61.36
2023-01-25T02:42:18.097Z,61.29
2023-01-25T02:43:49.582Z,61.65
2023-01-25T02:45:21.151Z,61.61
2023-01-25T02:46:53.145Z,61.57
2023-01-25T02:48:24.819Z,61.63
2023-01-25T02:49:56.302Z,61.54
2023-01-25T02:51:29.057Z,61.73
2023-01-25T02:53:00.663Z,61.67
2023-01-25T02:54:32.172Z,61.57
2023-01-25T02:56:03.838Z,61.81
2023-01-25T02:57:35.425Z,61.45
2023-01-25T02:59:07.579Z,61.82
2023-01-25T03:00:39.241Z,61.85
2023-01-25T03:02:10.814Z,61.84
2023-01-25T03:03:42.698Z,61.83
2023-01-25T03:05:14.357Z,61.77
2023-01-25T03:06:46.338Z,61.89
2023-01-25T03:08:17.790Z,61.81
2023-01-25T03:09:49.305Z,61.52
2023-01-25T03:11:21.124Z,61.61
2023-01-25T03:12:52.795Z,61.64
2023-01-25T03:14:24.333Z,61.57
2023-01-25T03:15:59.749Z,61.82
2023-01-25T03:17:31.475Z,61.65
2023-01-25T03:19:05.171Z,61.62
2023-01-25T03:20:36.664Z,61.44
2023-01-25T03:22:12.232Z,61.12
2023-01-25T03:23:48.426Z,61.07
2023-01-25T03:25:20.376Z,60.92
2023-01-25T03:27:11.025Z,60.76
2023-01-25T03:28:42.702Z,61.16
2023-01-25T03:30:14.335Z,61.16
2023-01-25T03:31:45.978Z,61.53
2023-01-25T03:33:17.621Z,61.56
2023-01-25T03:34:49.256Z,61.56
2023-01-25T03:36:20.768Z,61.73
2023-01-25T03:37:52.398Z,61.75
2023-01-25T03:39:24.044Z,61.83
2023-01-25T03:40:55.774Z,61.77
2023-01-25T03:42:27.332Z,61.73
2023-01-25T03:43:58.987Z,61.83
2023-01-25T03:45:30.755Z,62.07
2023-01-25T03:47:02.540Z,61.90
2023-01-25T03:48:34.233Z,61.92
2023-01-25T03:50:06.152Z,62.19
2023-01-25T03:51:37.777Z,61.94
2023-01-25T03:53:20.193Z,61.86
2023-01-25T03:54:51.757Z,61.83
2023-01-25T03:56:23.319Z,61.56
2023-01-25T03:57:54.839Z,61.60
2023-01-25T03:59:26.367Z,61.19
2023-01-25T04:00:58.487Z,61.35
2023-01-25T04:02:30.162Z,61.46
2023-01-25T04:04:01.764Z,61.75
2023-01-25T04:05:33.333Z,61.53
2023-01-25T04:07:04.990Z,61.46
2023-01-25T04:08:36.603Z,61.45
2023-01-25T04:10:08.589Z,61.53
2023-01-25T04:11:40.367Z,61.38
2023-01-25T04:13:11.915Z,61.71
2023-01-25T04:14:45.057Z,61.38
2023-01-25T04:16:16.652Z,61.15
2023-01-25T04:17:48.785Z,60.89
2023-01-25T04:19:20.446Z,61.20
2023-01-25T04:20:55.208Z,60.82
2023-01-25T04:22:26.718Z,60.97
2023-01-25T04:23:58.613Z,61.00
2023-01-25T04:25:30.132Z,61.33
2023-01-25T04:27:01.641Z,61.51
2023-01-25T04:28:33.424Z,61.58
2023-01-25T04:30:05.438Z,61.22
2023-01-25T04:31:37.128Z,61.38
2023-01-25T04:33:08.765Z,61.27
2023-01-25T04:34:40.361Z,61.36
2023-01-25T04:36:11.832Z,61.35
2023-01-25T04:37:43.376Z,61.05
2023-01-25T04:39:15.041Z,61.19
2023-01-25T04:40:46.625Z,61.47
2023-01-25T04:42:18.185Z,61.48
2023-01-25T04:43:49.835Z,61.49
2023-01-25T04:45:21.518Z,61.93
2023-01-25T04:46:52.980Z,61.91
2023-01-25T04:48:24.667Z,61.84
2023-01-25T04:49:56.142Z,61.90
2023-01-25T04:51:27.728Z,61.88
2023-01-25T04:52:59.197Z,61.99
2023-01-25T04:54:30.772Z,61.96
2023-01-25T04:56:02.516Z,62.39
2023-01-25T04:57:34.215Z,62.68
2023-01-25T04:59:05.754Z,62.11
2023-01-25T05:00:37.210Z,61.98
2023-01-25T05:02:08.801Z,61.53
2023-01-25T05:03:40.487Z,61.32
2023-01-25T05:05:12.182Z,61.53
2023-01-25T05:06:43.867Z,61.48
2023-01-25T05:08:15.481Z,61.42
2023-01-25T05:09:47.138Z,61.77
2023-01-25T05:11:18.783Z,61.81
2023-01-25T05:12:50.275Z,61.98
2023-01-25T05:14:22.028Z,61.90
2023-01-25T05:15:53.748Z,62.02
2023-01-25T05:17:25.425Z,62.18
2023-01-25T05:18:56.998Z,62.22
2023-01-25T05:20:28.564Z,62.04
2023-01-25T05:22:00.589Z,62.01
2023-01-25T05:23:32.214Z,62.04
2023-01-25T05:25:04.076Z,62.08
2023-01-25T05:26:54.368Z,61.64
2023-01-25T05:28:26.135Z,61.55
2023-01-25T05:29:57.858Z,61.41
2023-01-25T05:31:29.469Z,61.75
2023-01-25T05:33:01.000Z,61.87
2023-01-25T05:34:32.870Z,61.82
2023-01-25T05:36:04.511Z,61.81
2023-01-25T05:37:36.093Z,61.93
2023-01-25T05:39:08.854Z,62.05
2023-01-25T05:40:40.505Z,61.99
2023-01-25T05:42:13.026Z,61.75
2023-01-25T05:43:44.605Z,61.53
2023-01-25T05:45:16.296Z,61.30
2023-01-25T05:46:47.929Z,61.30
2023-01-25T05:48:20.042Z,61.60
2023-01-25T05:49:51.722Z,61.56
2023-01-25T05:51:24.901Z,61.66
2023-01-25T05:52:56.468Z,61.64
2023-01-25T05:54:28.083Z,61.78
2023-01-25T05:56:08.724Z,61.49
2023-01-25T05:57:40.424Z,61.75
2023-01-25T05:59:12.104Z,61.57
2023-01-25T06:00:43.616Z,61.52
2023-01-25T06:02:16.609Z,61.35
2023-01-25T06:03:48.247Z,61.34
2023-01-25T06:05:19.900Z,61.37
2023-01-25T06:06:51.382Z,61.43
2023-01-25T06:08:22.980Z,61.90
2023-01-25T06:09:54.589Z,61.81
2023-01-25T06:11:26.225Z,61.83
2023-01-25T06:12:58.606Z,61.75
2023-01-25T06:14:30.088Z,61.29
2023-01-25T06:16:01.832Z,61.27
2023-01-25T06:17:42.412Z,61.34
2023-01-25T06:19:31.586Z,61.02
2023-01-25T06:22:54.573Z,61.13
2023-01-25T06:24:26.482Z,61.25
2023-01-25T06:26:01.628Z,61.19
2023-01-25T06:27:33.154Z,61.39
2023-01-25T06:29:05.465Z,61.46
2023-01-25T06:30:36.988Z,61.27
2023-01-25T06:32:08.743Z,61.21
2023-01-25T06:33:40.793Z,61.49
2023-01-25T06:35:12.336Z,61.28
2023-01-25T06:36:43.811Z,61.25
2023-01-25T06:38:15.316Z,61.40
2023-01-25T06:39:47.028Z,61.21
2023-01-25T06:41:18.785Z,61.37
2023-01-25T06:42:50.400Z,61.24
2023-01-25T06:44:21.956Z,61.27
2023-01-25T06:45:53.491Z,61.46
2023-01-25T06:47:25.227Z,61.39
2023-01-25T06:48:56.773Z,61.82
2023-01-25T06:50:28.494Z,61.46
2023-01-25T06:52:01.563Z,61.69
2023-01-25T06:53:34.020Z,61.02
2023-01-25T06:55:07.742Z,60.99
2023-01-25T06:56:39.605Z,61.10
2023-01-25T06:58:11.052Z,61.39
2023-01-25T06:59:42.636Z,61.36
2023-01-25T07:01:20.381Z,61.11
2023-01-25T07:02:52.140Z,61.28
2023-01-25T07:04:23.936Z,61.10
2023-01-25T07:05:59.198Z,61.18
2023-01-25T07:07:30.781Z,61.18
2023-01-25T07:09:03.434Z,61.46
2023-01-25T07:10:35.038Z,61.65
2023-01-25T07:12:06.778Z,61.71
2023-01-25T07:13:38.369Z,61.48
2023-01-25T07:15:10.563Z,61.61
2023-01-25T07:16:42.344Z,61.33
2023-01-25T07:18:16.585Z,61.56
2023-01-25T07:19:48.442Z,61.48
2023-01-25T07:21:21.487Z,61.62
2023-01-25T07:22:53.341Z,61.61
2023-01-25T07:24:27.416Z,61.70
2023-01-25T07:25:59.104Z,61.44
2023-01-25T07:27:32.858Z,61.30
2023-01-25T07:29:04.329Z,61.30
2023-01-25T07:30:35.922Z,61.30
2023-01-25T07:32:07.467Z,61.02
2023-01-25T07:33:39.102Z,61.03
2023-01-25T07:35:10.926Z,60.90
2023-01-25T07:36:44.031Z,61.19
2023-01-25T07:38:15.600Z,61.01
2023-01-25T07:39:50.557Z,61.21
2023-01-25T07:41:22.523Z,61.25
2023-01-25T07:42:54.277Z,61.12
2023-01-25T07:44:26.011Z,61.14
2023-01-25T07:46:03.345Z,61.25
2023-01-25T07:47:37.097Z,60.91
2023-01-25T07:49:09.305Z,61.50
2023-01-25T07:50:41.660Z,61.13
2023-01-25T07:52:13.245Z,61.40
2023-01-25T07:53:44.946Z,61.39
2023-01-25T07:55:16.643Z,61.19
2023-01-25T07:56:49.703Z,61.36
2023-01-25T07:58:21.217Z,61.36
2023-01-25T07:59:52.811Z,61.56
2023-01-25T08:01:25.046Z,61.55
2023-01-25T08:02:56.535Z,61.41
2023-01-25T08:04:28.128Z,61.36
2023-01-25T08:05:59.950Z,61.49
2023-01-25T08:07:31.545Z,61.51
2023-01-25T08:09:04.069Z,61.37
2023-01-25T08:10:35.731Z,61.70
2023-01-25T08:12:08.743Z,61.50
2023-01-25T08:13:40.857Z,61.33
2023-01-25T08:15:13.038Z,61.73
2023-01-25T08:16:44.648Z,61.32
2023-01-25T08:18:16.574Z,61.44
2023-01-25T08:19:48.378Z,61.21
2023-01-25T08:21:20.079Z,61.21
2023-01-25T08:22:52.585Z,61.33
2023-01-25T08:24:25.522Z,61.12
2023-01-25T08:26:01.332Z,61.14
2023-01-25T08:27:33.431Z,61.38
2023-01-25T08:29:05.730Z,60.93
2023-01-25T08:30:41.192Z,60.97
2023-01-25T08:32:17.782Z,61.29
2023-01-25T08:36:01.579Z,61.16
2023-01-25T08:37:59.627Z,60.88
2023-01-25T08:39:31.486Z,61.31
2023-01-25T08:41:06.759Z,61.10
2023-01-25T08:42:38.651Z,61.52
2023-01-25T08:44:23.350Z,61.29
2023-01-25T08:46:00.956Z,61.58
2023-01-25T08:47:32.569Z,61.18
2023-01-25T08:49:04.940Z,61.59
2023-01-25T08:50:36.535Z,61.17
2023-01-25T08:52:08.483Z,61.78
2023-01-25T08:53:40.356Z,60.87
2023-01-25T08:55:12.443Z,61.25
2023-01-25T08:58:33.712Z,61.37
2023-01-25T09:00:32.585Z,61.83
2023-01-25T09:02:04.265Z,61.16
2023-01-25T09:03:36.981Z,61.60
2023-01-25T09:05:09.215Z,61.71
2023-01-25T09:06:41.005Z,61.33
2023-01-25T09:08:22.348Z,61.22
2023-01-25T09:09:53.915Z,61.13
2023-01-25T09:11:31.554Z,60.96
2023-01-25T09:13:08.937Z,61.69
2023-01-25T09:16:45.233Z,61.67
2023-01-25T09:18:17.952Z,61.44
2023-01-25T09:21:26.320Z,61.66
2023-01-25T09:22:58.012Z,61.70
2023-01-25T09:24:29.855Z,61.62
2023-01-25T09:26:02.971Z,61.10
2023-01-25T09:27:35.236Z,61.41
2023-01-25T09:29:08.298Z,60.73
2023-01-25T09:30:47.604Z,61.44
2023-01-25T09:32:24.548Z,60.59
2023-01-25T09:33:58.962Z,61.14
2023-01-25T09:35:31.466Z,60.88
2023-01-25T09:37:06.540Z,60.86
2023-01-25T09:38:38.751Z,60.89
2023-01-25T09:40:24.240Z,61.57
2023-01-25T09:42:15.625Z,61.23
2023-01-25T09:43:47.371Z,60.42
2023-01-25T09:45:27.745Z,61.50
2023-01-25T09:47:03.433Z,61.57
2023-01-25T09:48:40.090Z,61.60
2023-01-25T09:50:15.213Z,61.71
2023-01-25T09:51:49.431Z,60.76
2023-01-25T09:53:25.428Z,61.59
2023-01-25T09:54:57.653Z,60.66
2023-01-25T09:56:30.652Z,61.13
2023-01-25T09:58:02.935Z,61.29
2023-01-25T09:59:34.693Z,61.31
2023-01-25T10:01:37.453Z,60.66
2023-01-25T10:03:29.501Z,61.40
2023-01-25T10:05:04.109Z,61.38
2023-01-25T10:06:46.059Z,61.25
2023-01-25T10:08:33.889Z,61.38
2023-01-25T10:10:07.338Z,61.36
2023-01-25T10:11:48.202Z,61.32
2023-01-25T10:13:20.459Z,60.84
2023-01-25T10:14:52.412Z,61.09
2023-01-25T10:16:26.999Z,60.53
2023-01-25T10:17:59.596Z,60.65
2023-01-25T10:19:34.286Z,61.05
2023-01-25T10:21:35.040Z,60.38
2023-01-25T10:23:18.976Z,60.50
2023-01-25T10:25:12.671Z,60.36
2023-01-25T10:26:44.899Z,60.70
2023-01-25T10:28:25.626Z,60.06
2023-01-25T10:29:58.217Z,60.05
2023-01-25T10:31:35.417Z,60.27
2023-01-25T10:33:17.670Z,60.84
2023-01-25T10:34:56.837Z,60.51
2023-01-25T10:36:40.595Z,60.72
2023-01-25T10:38:38.733Z,60.18
2023-01-25T10:40:22.561Z,60.48
2023-01-25T10:41:58.522Z,60.37
2023-01-25T10:43:30.668Z,60.40
2023-01-25T10:45:02.539Z,60.37
2023-01-25T10:46:34.459Z,60.02
2023-01-25T10:48:09.888Z,59.86
2023-01-25T10:49:47.660Z,59.92
2023-01-25T10:51:29.366Z,60.39
2023-01-25T10:53:01.645Z,59.64
2023-01-25T10:54:33.703Z,60.20
2023-01-25T10:56:21.177Z,59.81
2023-01-25T10:57:59.483Z,60.00
2023-01-25T10:59:31.704Z,59.91
2023-01-25T11:01:09.411Z,59.93
2023-01-25T11:02:45.128Z,60.33
2023-01-25T11:04:22.935Z,59.82
2023-01-25T11:05:55.356Z,60.04
2023-01-25T11:07:27.764Z,60.18
2023-01-25T11:08:59.429Z,60.40
2023-01-25T11:10:34.348Z,59.81
2023-01-25T11:12:13.764Z,60.13
2023-01-25T11:13:45.692Z,59.79
2023-01-25T11:15:24.136Z,59.88
2023-01-25T11:16:56.120Z,60.03
2023-01-25T11:18:29.644Z,59.77
2023-01-25T11:20:12.448Z,59.23
2023-01-25T11:21:51.883Z,59.40
2023-01-25T11:23:24.839Z,59.46
2023-01-25T11:24:56.801Z,59.22
2023-01-25T11:26:28.506Z,59.18
2023-01-25T11:28:18.854Z,59.07
2023-01-25T11:30:06.231Z,59.54
2023-01-25T11:31:38.410Z,59.35
2023-01-25T11:33:13.338Z,59.15
2023-01-25T11:34:45.335Z,59.27
2023-01-25T11:36:20.188Z,59.06
2023-01-25T11:38:06.682Z,59.18
2023-01-25T11:39:53.208Z,58.98
2023-01-25T11:41:31.167Z,59.25
2023-01-25T11:43:05.648Z,59.21
2023-01-25T11:44:51.996Z,59.20
2023-01-25T11:46:26.449Z,58.88
2023-01-25T11:48:10.206Z,58.64
2023-01-25T11:49:48.404Z,58.83
2023-01-25T11:51:26.111Z,58.97
2023-01-25T11:53:03.802Z,58.47
2023-01-25T11:54:47.320Z,58.72
2023-01-25T11:56:38.139Z,58.48
2023-01-25T11:58:24.698Z,58.50
2023-01-25T12:00:02.417Z,58.84
2023-01-25T12:01:52.310Z,58.86
2023-01-25T12:03:34.571Z,58.30
2023-01-25T12:05:25.127Z,58.49
2023-01-25T12:06:58.836Z,58.59
2023-01-25T12:08:43.717Z,58.83
2023-01-25T12:10:21.095Z,59.10
2023-01-25T12:12:11.452Z,59.21
2023-01-25T12:13:43.279Z,59.77
2023-01-25T12:15:33.757Z,59.07
2023-01-25T12:17:12.149Z,59.50
2023-01-25T12:18:46.466Z,59.28
2023-01-25T12:20:36.752Z,59.40
2023-01-25T12:22:17.896Z,59.79
2023-01-25T12:23:52.815Z,59.51
2023-01-25T12:25:24.503Z,59.56
2023-01-25T12:27:08.180Z,59.24
2023-01-25T12:28:43.548Z,58.98
2023-01-25T12:30:38.154Z,59.00
2023-01-25T12:32:19.005Z,59.20
2023-01-25T12:33:56.802Z,58.94
2023-01-25T12:35:32.069Z,59.21
2023-01-25T12:37:06.097Z,59.37
2023-01-25T12:38:37.593Z,59.71
2023-01-25T12:40:47.873Z,58.90
2023-01-25T12:42:24.472Z,58.91
2023-01-25T12:44:01.765Z,58.66
2023-01-25T12:45:34.553Z,58.53
2023-01-25T12:47:18.868Z,58.55
2023-01-25T12:48:50.897Z,58.25
2023-01-25T12:50:33.488Z,58.53
2023-01-25T12:52:06.663Z,58.74
2023-01-25T12:53:42.804Z,58.35
2023-01-25T12:55:14.946Z,59.19
2023-01-25T12:56:48.777Z,58.73
2023-01-25T12:58:36.397Z,58.64
2023-01-25T13:00:20.824Z,58.68
2023-01-25T13:02:00.259Z,58.43
2023-01-25T13:03:44.101Z,58.72
2023-01-25T13:05:18.809Z,58.09
2023-01-25T13:07:09.451Z,58.92
2023-01-25T13:08:49.858Z,58.64
2023-01-25T13:10:24.397Z,59.15
2023-01-25T13:11:56.181Z,59.10
2023-01-25T13:13:28.207Z,58.38
2023-01-25T13:14:59.803Z,58.88
2023-01-25T13:16:32.582Z,58.51
2023-01-25T13:18:27.154Z,58.54
2023-01-25T13:19:59.558Z,58.43
2023-01-25T13:21:37.234Z,58.32
2023-01-25T13:23:44.255Z,58.85
2023-01-25T13:25:18.719Z,59.16
2023-01-25T13:26:50.750Z,58.76
2023-01-25T13:28:42.256Z,58.84
2023-01-25T13:30:17.572Z,58.87
2023-01-25T13:31:53.616Z,58.44
2023-01-25T13:33:36.017Z,58.41
2023-01-25T13:35:11.727Z,58.42
2023-01-25T13:36:43.864Z,59.05
2023-01-25T13:38:18.632Z,59.05
2023-01-25T13:40:06.783Z,59.27
2023-01-25T13:41:41.896Z,58.44
2023-01-25T13:43:18.116Z,58.23
2023-01-25T13:44:51.724Z,58.03
2023-01-25T13:46:23.612Z,58.58
2023-01-25T13:48:14.014Z,58.29
2023-01-25T13:49:48.760Z,58.41
2023-01-25T13:51:20.453Z,58.69
2023-01-25T13:53:02.529Z,58.12
2023-01-25T13:54:34.151Z,58.89
2023-01-25T13:56:05.780Z,58.35
2023-01-25T13:57:37.444Z,58.14
2023-01-25T13:59:27.804Z,58.53
2023-01-25T14:01:28.614Z,58.54
2023-01-25T14:03:00.278Z,58.47
2023-01-25T14:04:32.118Z,58.29
2023-01-25T14:06:04.520Z,58.01
2023-01-25T14:07:37.365Z,58.13
2023-01-25T14:09:20.817Z,58.15
2023-01-25T14:10:52.602Z,58.06
2023-01-25T14:12:40.354Z,57.94
2023-01-25T14:14:19.299Z,58.10
2023-01-25T14:15:53.724Z,57.88
2023-01-25T14:17:25.481Z,58.32
2023-01-25T14:18:58.474Z,58.20
2023-01-25T14:20:30.549Z,58.22
2023-01-25T14:22:19.281Z,58.62
2023-01-25T14:23:52.475Z,58.40
2023-01-25T14:25:25.944Z,57.92
2023-01-25T14:26:57.565Z,58.25
2023-01-25T14:28:32.219Z,58.58
2023-01-25T14:30:04.239Z,58.54
2023-01-25T14:31:36.539Z,58.20
2023-01-25T14:33:30.248Z,58.29
2023-01-25T14:35:22.761Z,58.14
2023-01-25T14:37:27.082Z,57.58
2023-01-25T14:38:58.894Z,57.73
2023-01-25T14:40:30.615Z,57.38
2023-01-25T14:42:02.317Z,58.03
2023-01-25T14:43:34.258Z,57.98
2023-01-25T14:45:06.178Z,58.50
2023-01-25T14:46:38.129Z,57.92
2023-01-25T14:48:28.109Z,57.83
2023-01-25T14:50:18.855Z,57.87
2023-01-25T14:52:06.041Z,57.76
2023-01-25T14:53:38.712Z,58.22
2023-01-25T14:55:10.439Z,57.95
2023-01-25T14:56:46.289Z,58.19
2023-01-25T14:58:18.954Z,57.93
2023-01-25T14:59:51.340Z,58.21
2023-01-25T15:01:33.236Z,58.40
2023-01-25T15:03:06.402Z,58.17
2023-01-25T15:04:38.087Z,58.27
2023-01-25T15:06:10.181Z,58.26
2023-01-25T15:07:41.971Z,57.74
2023-01-25T15:09:52.150Z,57.80
2023-01-25T15:11:38.801Z,57.94
2023-01-25T15:13:14.800Z,58.11
2023-01-25T15:14:50.842Z,58.00
2023-01-25T15:16:32.654Z,57.58
2023-01-25T15:18:04.472Z,57.69
2023-01-25T15:19:36.218Z,57.71
2023-01-25T15:21:11.206Z,57.70
2023-01-25T15:22:42.990Z,57.55
2023-01-25T15:24:14.759Z,57.71
2023-01-25T15:25:50.428Z,57.97
2023-01-25T15:27:22.249Z,57.32
2023-01-25T15:28:58.017Z,57.50
2023-01-25T15:30:29.628Z,57.47
2023-01-25T15:32:01.373Z,57.53
2023-01-25T15:33:33.183Z,57.29
2023-01-25T15:35:05.074Z,57.29
2023-01-25T15:36:36.704Z,57.43
2023-01-25T15:38:09.335Z,57.56
2023-01-25T15:39:40.946Z,57.96
2023-01-25T15:41:15.338Z,58.01
2023-01-25T15:42:46.923Z,57.63
2023-01-25T15:44:20.382Z,57.70
2023-01-25T15:45:52.336Z,57.98
2023-01-25T15:47:23.909Z,57.84
2023-01-25T15:48:55.496Z,57.83
2023-01-25T15:50:26.983Z,58.05
2023-01-25T15:51:58.962Z,58.05
2023-01-25T15:53:30.833Z,57.81
2023-01-25T15:55:02.611Z,58.21
2023-01-25T15:56:38.223Z,58.30
2023-01-25T15:58:11.134Z,57.98
2023-01-25T15:59:42.727Z,58.24
2023-01-25T16:01:14.323Z,58.26
2023-01-25T16:02:45.987Z,57.78
2023-01-25T16:04:17.948Z,57.93
2023-01-25T16:05:51.699Z,57.63
2023-01-25T16:07:25.038Z,57.81
2023-01-25T16:08:58.969Z,57.60
2023-01-25T16:10:31.202Z,57.29
2023-01-25T16:12:03.068Z,57.54
2023-01-25T16:13:34.970Z,57.08
2023-01-25T16:15:07.348Z,57.43
2023-01-25T16:16:44.062Z,57.08
2023-01-25T16:18:15.967Z,57.08
2023-01-25T16:19:48.390Z,57.32
2023-01-25T16:21:20.465Z,57.17
2023-01-25T16:22:52.338Z,57.01
2023-01-25T16:24:24.542Z,56.59
2023-01-25T16:25:56.598Z,57.07
2023-01-25T16:27:35.957Z,57.26
2023-01-25T16:29:08.659Z,56.95
2023-01-25T16:30:41.543Z,57.60
2023-01-25T16:32:13.267Z,57.51
2023-01-25T16:33:45.067Z,57.75
2023-01-25T16:35:16.751Z,57.59
2023-01-25T16:36:51.051Z,57.64
2023-01-25T16:38:22.631Z,58.10
2023-01-25T16:39:54.222Z,57.79
2023-01-25T16:41:25.793Z,57.87
2023-01-25T16:42:57.788Z,58.01
2023-01-25T16:44:29.391Z,58.18
2023-01-25T16:46:00.981Z,58.13
2023-01-25T16:47:32.601Z,58.26
2023-01-25T16:49:10.599Z,58.23
2023-01-25T16:50:42.992Z,58.28
2023-01-25T16:52:14.653Z,58.35
2023-01-25T16:53:46.337Z,58.35
2023-01-25T16:55:18.554Z,58.55
2023-01-25T16:56:50.544Z,58.47
2023-01-25T16:58:22.277Z,58.46
2023-01-25T16:59:54.034Z,58.38
2023-01-25T17:01:25.800Z,58.46
2023-01-25T17:02:59.411Z,58.35
2023-01-25T17:04:31.152Z,58.47
2023-01-25T17:06:02.962Z,58.45
2023-01-25T17:07:34.630Z,58.49
2023-01-25T17:09:21.696Z,58.72
2023-01-25T17:10:57.772Z,58.36
2023-01-25T17:12:29.343Z,58.58
2023-01-25T17:14:00.995Z,58.50
2023-01-25T17:15:34.033Z,58.43
2023-01-25T17:17:06.136Z,58.35
2023-01-25T17:18:37.731Z,58.14
2023-01-25T17:20:09.920Z,58.17
2023-01-25T17:21:41.902Z,58.14
2023-01-25T17:23:13.601Z,58.27
2023-01-25T17:24:45.591Z,58.27
2023-01-25T17:26:17.617Z,58.57
2023-01-25T17:27:49.521Z,58.38
2023-01-25T17:29:22.162Z,58.25
2023-01-25T17:30:54.563Z,58.08
2023-01-25T17:32:27.165Z,58.66
2023-01-25T17:34:00.542Z,58.07
2023-01-25T17:35:35.307Z,58.17
2023-01-25T17:37:06.954Z,58.49
2023-01-25T17:38:38.649Z,58.34
2023-01-25T17:40:10.988Z,58.35
2023-01-25T17:41:46.278Z,58.37
2023-01-25T17:43:17.960Z,58.14
2023-01-25T17:44:50.096Z,57.96
2023-01-25T17:46:22.387Z,58.20
2023-01-25T17:47:54.005Z,58.45
2023-01-25T17:49:26.617Z,58.32
2023-01-25T17:51:01.795Z,58.29
2023-01-25T17:52:33.357Z,58.60
2023-01-25T17:54:04.973Z,58.19
2023-01-25T17:55:39.353Z,58.43
2023-01-25T17:57:10.945Z,58.54
2023-01-25T17:58:43.029Z,58.22
2023-01-25T18:00:14.973Z,58.80
2023-01-25T18:01:46.615Z,58.54
2023-01-25T18:03:18.791Z,58.45
2023-01-25T18:04:50.900Z,58.39
2023-01-25T18:06:25.068Z,58.96
2023-01-25T18:07:56.847Z,58.71
2023-01-25T18:09:29.179Z,58.72
2023-01-25T18:11:00.772Z,58.99
2023-01-25T18:12:32.559Z,59.34
2023-01-25T18:14:08.120Z,59.07
2023-01-25T18:15:39.749Z,58.99
2023-01-25T18:17:11.888Z,59.29
2023-01-25T18:18:43.830Z,59.34
2023-01-25T18:20:15.516Z,59.28
2023-01-25T18:21:48.402Z,59.18
2023-01-25T18:23:20.036Z,59.11
2023-01-25T18:24:51.596Z,59.28
2023-01-25T18:26:37.248Z,59.26
2023-01-25T18:28:10.383Z,58.98
2023-01-25T18:29:55.319Z,59.31
2023-01-25T18:31:27.602Z,59.37
2023-01-25T18:32:59.755Z,59.14
2023-01-25T18:34:40.585Z,58.96
2023-01-25T18:36:14.456Z,59.22
2023-01-25T18:37:46.820Z,59.07
2023-01-25T18:39:18.360Z,59.23
2023-01-25T18:40:49.985Z,59.26
2023-01-25T18:42:22.529Z,59.39
2023-01-25T18:43:54.177Z,58.86
2023-01-25T18:45:25.894Z,59.08
2023-01-25T18:46:57.845Z,59.19
2023-01-25T18:48:32.452Z,58.93
2023-01-25T18:50:04.200Z,58.76
2023-01-25T18:51:44.426Z,59.06
2023-01-25T18:53:27.893Z,59.12
2023-01-25T18:54:59.591Z,58.87
2023-01-25T18:56:32.084Z,58.88
2023-01-25T18:58:04.566Z,58.92
2023-01-25T18:59:37.085Z,59.36
2023-01-25T19:01:10.670Z,59.37
2023-01-25T19:02:42.468Z,59.33
2023-01-25T19:04:14.213Z,59.19
2023-01-25T19:05:51.028Z,58.98
2023-01-25T19:07:22.705Z,58.98
2023-01-25T19:08:56.559Z,59.13
2023-01-25T19:10:28.126Z,59.08
2023-01-25T19:12:00.231Z,58.67
2023-01-25T19:13:35.296Z,59.25
2023-01-25T19:15:08.059Z,58.73
2023-01-25T19:16:40.262Z,59.16
2023-01-25T19:18:12.480Z,58.92
2023-01-25T19:19:44.705Z,58.87
2023-01-25T19:21:17.584Z,59.02
2023-01-25T19:22:49.736Z,58.89
2023-01-25T19:24:21.968Z,59.32
2023-01-25T19:25:54.677Z,59.18
2023-01-25T19:27:27.070Z,59.89
2023-01-25T19:28:58.501Z,59.58
2023-01-25T19:30:31.509Z,59.46
2023-01-25T19:32:03.322Z,59.93
2023-01-25T19:33:35.710Z,59.66
2023-01-25T19:35:07.927Z,59.73
2023-01-25T19:36:43.816Z,59.36
2023-01-25T19:38:15.475Z,59.68
2023-01-25T19:39:48.841Z,59.62
2023-01-25T19:41:22.177Z,59.53
2023-01-25T19:42:54.468Z,59.71
2023-01-25T19:44:26.912Z,59.40
2023-01-25T19:46:15.047Z,59.85
2023-01-25T19:47:47.121Z,59.41
2023-01-25T19:49:18.849Z,59.68
2023-01-25T19:50:50.698Z,59.48
2023-01-25T19:52:22.352Z,59.76
2023-01-25T19:53:54.802Z,59.64
2023-01-25T19:55:26.575Z,59.66
2023-01-25T19:56:59.376Z,59.77
2023-01-25T19:58:31.107Z,59.77
2023-01-25T20:00:02.989Z,59.42
2023-01-25T20:01:37.735Z,59.80
2023-01-25T20:03:16.199Z,59.38
2023-01-25T20:04:48.347Z,59.43
2023-01-25T20:06:20.084Z,59.55
2023-01-25T20:07:51.775Z,59.75
2023-01-25T20:09:27.864Z,59.62
2023-01-25T20:11:03.538Z,59.69
2023-01-25T20:12:35.210Z,59.68
2023-01-25T20:14:06.841Z,59.63
2023-01-25T20:15:38.404Z,59.90
2023-01-25T20:17:10.206Z,59.69
2023-01-25T20:18:42.471Z,59.29
2023-01-25T20:20:14.213Z,59.25
2023-01-25T20:21:46.729Z,59.40
2023-01-25T20:23:18.358Z,59.83
2023-01-25T20:24:49.950Z,59.55
2023-01-25T20:26:22.271Z,59.76